sensor_id;sensor_type;location;lat;lon;timestamp;P1;durP1;ratioP1;P2;durP2;ratioP2
13230;SDS011;6681;53.254;10.398;2023-10-19T00:00:35;13.00;;;10.13;;
13230;SDS011;6681;53.254;10.398;2023-10-19T00:03:04;11.10;;;8.73;;
13230;SDS011;6681;53.254;10.398;2023-10-19T00:05:31;14.00;;;8.73;;
13230;SDS011;6681;53.254;10.398;2023-10-19T00:07:58;11.07;;;9.73;;
13230;SDS011;6681;53.254;10.398;2023-10-19T00:10:26;14.20;;;9.50;;
13230;SDS011;6681;53.254;10.398;2023-10-19T00:12:59;13.47;;;9.23;;
13230;SDS011;6681;53.254;10.398;2023-10-19T00:15:33;13.80;;;9.87;;
13230;SDS011;6681;53.254;10.398;2023-10-19T00:18:04;13.20;;;8.77;;
13230;SDS011;6681;53.254;10.398;2023-10-19T00:20:46;11.93;;;9.43;;
13230;SDS011;6681;53.254;10.398;2023-10-19T00:23:13;12.37;;;9.67;;
13230;SDS011;6681;53.254;10.398;2023-10-19T00:25:43;15.13;;;9.20;;
13230;SDS011;6681;53.254;10.398;2023-10-19T00:28:18;20.97;;;10.67;;
13230;SDS011;6681;53.254;10.398;2023-10-19T00:30:44;13.97;;;9.80;;
13230;SDS011;6681;53.254;10.398;2023-10-19T00:33:11;14.73;;;10.07;;
13230;SDS011;6681;53.254;10.398;2023-10-19T00:35:45;12.50;;;9.67;;
13230;SDS011;6681;53.254;10.398;2023-10-19T00:38:30;11.10;;;8.87;;
13230;SDS011;6681;53.254;10.398;2023-10-19T00:41:05;14.57;;;9.83;;
13230;SDS011;6681;53.254;10.398;2023-10-19T00:43:42;13.23;;;9.53;;
13230;SDS011;6681;53.254;10.398;2023-10-19T00:46:08;10.23;;;8.90;;
13230;SDS011;6681;53.254;10.398;2023-10-19T00:48:45;12.50;;;9.87;;
13230;SDS011;6681;53.254;10.398;2023-10-19T00:51:20;18.07;;;10.73;;
13230;SDS011;6681;53.254;10.398;2023-10-19T00:53:56;12.33;;;8.77;;
13230;SDS011;6681;53.254;10.398;2023-10-19T00:56:24;13.57;;;9.33;;
13230;SDS011;6681;53.254;10.398;2023-10-19T00:58:56;18.93;;;9.90;;
13230;SDS011;6681;53.254;10.398;2023-10-19T01:01:26;15.83;;;10.23;;
13230;SDS011;6681;53.254;10.398;2023-10-19T01:03:54;13.23;;;9.50;;
13230;SDS011;6681;53.254;10.398;2023-10-19T01:06:23;14.00;;;9.53;;
13230;SDS011;6681;53.254;10.398;2023-10-19T01:08:50;13.47;;;9.60;;
13230;SDS011;6681;53.254;10.398;2023-10-19T01:11:17;13.47;;;10.43;;
13230;SDS011;6681;53.254;10.398;2023-10-19T01:13:46;11.90;;;9.53;;
13230;SDS011;6681;53.254;10.398;2023-10-19T01:16:16;13.03;;;8.83;;
13230;SDS011;6681;53.254;10.398;2023-10-19T01:18:54;20.57;;;12.37;;
13230;SDS011;6681;53.254;10.398;2023-10-19T01:21:23;14.47;;;11.17;;
13230;SDS011;6681;53.254;10.398;2023-10-19T01:24:06;13.33;;;9.20;;
13230;SDS011;6681;53.254;10.398;2023-10-19T01:26:33;12.43;;;10.37;;
13230;SDS011;6681;53.254;10.398;2023-10-19T01:29:02;12.57;;;10.33;;
13230;SDS011;6681;53.254;10.398;2023-10-19T01:31:38;14.50;;;11.03;;
13230;SDS011;6681;53.254;10.398;2023-10-19T01:34:16;15.37;;;11.43;;
13230;SDS011;6681;53.254;10.398;2023-10-19T01:36:45;12.77;;;10.13;;
13230;SDS011;6681;53.254;10.398;2023-10-19T01:39:15;16.10;;;10.17;;
13230;SDS011;6681;53.254;10.398;2023-10-19T01:41:43;16.23;;;11.57;;
13230;SDS011;6681;53.254;10.398;2023-10-19T01:44:09;15.40;;;11.37;;
13230;SDS011;6681;53.254;10.398;2023-10-19T01:46:38;14.10;;;9.27;;
13230;SDS011;6681;53.254;10.398;2023-10-19T01:49:04;15.30;;;9.73;;
13230;SDS011;6681;53.254;10.398;2023-10-19T01:51:31;19.83;;;10.83;;
13230;SDS011;6681;53.254;10.398;2023-10-19T01:54:03;18.00;;;10.20;;
13230;SDS011;6681;53.254;10.398;2023-10-19T01:56:29;15.70;;;11.07;;
13230;SDS011;6681;53.254;10.398;2023-10-19T01:58:55;8.77;;;7.10;;
13230;SDS011;6681;53.254;10.398;2023-10-19T02:01:22;15.93;;;11.13;;
13230;SDS011;6681;53.254;10.398;2023-10-19T02:03:50;12.00;;;9.30;;
13230;SDS011;6681;53.254;10.398;2023-10-19T02:06:19;13.00;;;10.20;;
13230;SDS011;6681;53.254;10.398;2023-10-19T02:08:46;14.70;;;10.53;;
13230;SDS011;6681;53.254;10.398;2023-10-19T02:11:15;14.53;;;10.43;;
13230;SDS011;6681;53.254;10.398;2023-10-19T02:13:47;15.17;;;9.70;;
13230;SDS011;6681;53.254;10.398;2023-10-19T02:16:15;12.93;;;10.07;;
13230;SDS011;6681;53.254;10.398;2023-10-19T02:18:42;13.23;;;10.50;;
13230;SDS011;6681;53.254;10.398;2023-10-19T02:21:09;14.13;;;10.47;;
13230;SDS011;6681;53.254;10.398;2023-10-19T02:23:37;16.00;;;10.40;;
13230;SDS011;6681;53.254;10.398;2023-10-19T02:26:07;16.10;;;11.60;;
13230;SDS011;6681;53.254;10.398;2023-10-19T02:28:33;14.27;;;10.10;;
13230;SDS011;6681;53.254;10.398;2023-10-19T02:31:05;12.70;;;9.63;;
13230;SDS011;6681;53.254;10.398;2023-10-19T02:33:44;14.60;;;10.87;;
13230;SDS011;6681;53.254;10.398;2023-10-19T02:36:28;16.90;;;11.70;;
13230;SDS011;6681;53.254;10.398;2023-10-19T02:38:55;15.70;;;10.00;;
13230;SDS011;6681;53.254;10.398;2023-10-19T02:41:24;18.53;;;10.43;;
13230;SDS011;6681;53.254;10.398;2023-10-19T02:43:52;16.20;;;11.07;;
13230;SDS011;6681;53.254;10.398;2023-10-19T02:46:29;15.53;;;10.67;;
13230;SDS011;6681;53.254;10.398;2023-10-19T02:49:02;17.87;;;12.37;;
13230;SDS011;6681;53.254;10.398;2023-10-19T02:51:30;15.53;;;10.77;;
13230;SDS011;6681;53.254;10.398;2023-10-19T02:53:56;16.97;;;11.73;;
13230;SDS011;6681;53.254;10.398;2023-10-19T02:56:25;17.10;;;11.70;;
13230;SDS011;6681;53.254;10.398;2023-10-19T02:58:52;15.53;;;11.03;;
13230;SDS011;6681;53.254;10.398;2023-10-19T03:01:18;13.67;;;10.93;;
13230;SDS011;6681;53.254;10.398;2023-10-19T03:03:52;18.63;;;11.43;;
13230;SDS011;6681;53.254;10.398;2023-10-19T03:06:22;17.47;;;13.43;;
13230;SDS011;6681;53.254;10.398;2023-10-19T03:08:48;17.67;;;13.47;;
13230;SDS011;6681;53.254;10.398;2023-10-19T03:11:22;17.83;;;11.13;;
13230;SDS011;6681;53.254;10.398;2023-10-19T03:13:53;16.47;;;13.03;;
13230;SDS011;6681;53.254;10.398;2023-10-19T03:16:20;17.33;;;11.30;;
13230;SDS011;6681;53.254;10.398;2023-10-19T03:18:47;16.03;;;13.07;;
13230;SDS011;6681;53.254;10.398;2023-10-19T03:21:13;16.97;;;12.13;;
13230;SDS011;6681;53.254;10.398;2023-10-19T03:23:38;20.20;;;14.17;;
13230;SDS011;6681;53.254;10.398;2023-10-19T03:26:05;19.93;;;13.13;;
13230;SDS011;6681;53.254;10.398;2023-10-19T03:28:46;16.47;;;13.40;;
13230;SDS011;6681;53.254;10.398;2023-10-19T03:31:12;17.40;;;13.20;;
13230;SDS011;6681;53.254;10.398;2023-10-19T03:33:44;21.60;;;13.57;;
13230;SDS011;6681;53.254;10.398;2023-10-19T03:36:14;14.87;;;11.17;;
13230;SDS011;6681;53.254;10.398;2023-10-19T03:38:39;17.43;;;11.90;;
13230;SDS011;6681;53.254;10.398;2023-10-19T03:41:06;16.90;;;12.40;;
13230;SDS011;6681;53.254;10.398;2023-10-19T03:43:33;16.63;;;13.00;;
13230;SDS011;6681;53.254;10.398;2023-10-19T03:46:01;21.17;;;13.40;;
13230;SDS011;6681;53.254;10.398;2023-10-19T03:48:31;16.87;;;12.63;;
13230;SDS011;6681;53.254;10.398;2023-10-19T03:51:03;18.53;;;12.40;;
13230;SDS011;6681;53.254;10.398;2023-10-19T03:53:29;18.20;;;13.07;;
13230;SDS011;6681;53.254;10.398;2023-10-19T03:55:56;18.43;;;13.33;;
13230;SDS011;6681;53.254;10.398;2023-10-19T03:58:22;29.83;;;15.13;;
13230;SDS011;6681;53.254;10.398;2023-10-19T04:00:48;17.07;;;12.23;;
13230;SDS011;6681;53.254;10.398;2023-10-19T04:03:14;23.20;;;14.33;;
13230;SDS011;6681;53.254;10.398;2023-10-19T04:05:42;21.83;;;13.27;;
13230;SDS011;6681;53.254;10.398;2023-10-19T04:08:11;21.93;;;14.17;;
13230;SDS011;6681;53.254;10.398;2023-10-19T04:10:45;18.17;;;13.73;;
13230;SDS011;6681;53.254;10.398;2023-10-19T04:13:33;16.63;;;13.77;;
13230;SDS011;6681;53.254;10.398;2023-10-19T04:16:02;20.23;;;12.20;;
13230;SDS011;6681;53.254;10.398;2023-10-19T04:18:28;19.47;;;13.43;;
13230;SDS011;6681;53.254;10.398;2023-10-19T04:20:54;20.23;;;13.23;;
13230;SDS011;6681;53.254;10.398;2023-10-19T04:23:20;19.07;;;13.13;;
13230;SDS011;6681;53.254;10.398;2023-10-19T04:25:47;17.93;;;12.73;;
13230;SDS011;6681;53.254;10.398;2023-10-19T04:28:13;19.60;;;13.83;;
13230;SDS011;6681;53.254;10.398;2023-10-19T04:30:39;19.53;;;14.13;;
13230;SDS011;6681;53.254;10.398;2023-10-19T04:33:05;17.70;;;12.50;;
13230;SDS011;6681;53.254;10.398;2023-10-19T04:35:35;17.13;;;13.83;;
13230;SDS011;6681;53.254;10.398;2023-10-19T04:38:03;25.03;;;15.33;;
13230;SDS011;6681;53.254;10.398;2023-10-19T04:40:32;15.93;;;12.70;;
13230;SDS011;6681;53.254;10.398;2023-10-19T04:42:58;22.10;;;15.13;;
13230;SDS011;6681;53.254;10.398;2023-10-19T04:45:26;24.10;;;16.20;;
13230;SDS011;6681;53.254;10.398;2023-10-19T04:47:52;20.07;;;13.40;;
13230;SDS011;6681;53.254;10.398;2023-10-19T04:50:19;21.20;;;13.13;;
13230;SDS011;6681;53.254;10.398;2023-10-19T04:52:46;18.77;;;14.00;;
13230;SDS011;6681;53.254;10.398;2023-10-19T04:55:12;20.17;;;14.03;;
13230;SDS011;6681;53.254;10.398;2023-10-19T04:57:38;23.00;;;14.83;;
13230;SDS011;6681;53.254;10.398;2023-10-19T05:00:04;19.83;;;14.20;;
13230;SDS011;6681;53.254;10.398;2023-10-19T05:02:30;21.93;;;15.07;;
13230;SDS011;6681;53.254;10.398;2023-10-19T05:04:55;26.00;;;15.83;;
13230;SDS011;6681;53.254;10.398;2023-10-19T05:07:21;23.73;;;15.07;;
13230;SDS011;6681;53.254;10.398;2023-10-19T05:09:47;17.90;;;14.57;;
13230;SDS011;6681;53.254;10.398;2023-10-19T05:12:13;21.40;;;14.03;;
13230;SDS011;6681;53.254;10.398;2023-10-19T05:14:39;20.43;;;13.57;;
13230;SDS011;6681;53.254;10.398;2023-10-19T05:17:06;19.17;;;15.47;;
13230;SDS011;6681;53.254;10.398;2023-10-19T05:19:34;18.07;;;13.63;;
13230;SDS011;6681;53.254;10.398;2023-10-19T05:22:01;18.20;;;14.37;;
13230;SDS011;6681;53.254;10.398;2023-10-19T05:24:33;15.97;;;13.00;;
13230;SDS011;6681;53.254;10.398;2023-10-19T05:27:00;22.33;;;13.57;;
13230;SDS011;6681;53.254;10.398;2023-10-19T05:29:25;18.23;;;14.37;;
13230;SDS011;6681;53.254;10.398;2023-10-19T05:31:51;21.90;;;15.37;;
13230;SDS011;6681;53.254;10.398;2023-10-19T05:34:23;19.03;;;13.70;;
13230;SDS011;6681;53.254;10.398;2023-10-19T05:36:49;18.67;;;13.50;;
13230;SDS011;6681;53.254;10.398;2023-10-19T05:39:15;19.80;;;14.57;;
13230;SDS011;6681;53.254;10.398;2023-10-19T05:41:41;19.57;;;14.33;;
13230;SDS011;6681;53.254;10.398;2023-10-19T05:44:07;22.43;;;14.90;;
13230;SDS011;6681;53.254;10.398;2023-10-19T05:46:33;20.83;;;15.33;;
13230;SDS011;6681;53.254;10.398;2023-10-19T05:48:58;18.60;;;13.00;;
13230;SDS011;6681;53.254;10.398;2023-10-19T05:51:26;18.97;;;13.97;;
13230;SDS011;6681;53.254;10.398;2023-10-19T05:53:52;21.00;;;14.40;;
13230;SDS011;6681;53.254;10.398;2023-10-19T05:56:19;21.80;;;14.47;;
13230;SDS011;6681;53.254;10.398;2023-10-19T05:58:46;20.40;;;15.27;;
13230;SDS011;6681;53.254;10.398;2023-10-19T06:01:15;17.20;;;13.77;;
13230;SDS011;6681;53.254;10.398;2023-10-19T06:03:42;21.87;;;15.53;;
13230;SDS011;6681;53.254;10.398;2023-10-19T06:06:08;20.83;;;14.53;;
13230;SDS011;6681;53.254;10.398;2023-10-19T06:08:33;23.43;;;14.90;;
13230;SDS011;6681;53.254;10.398;2023-10-19T06:10:59;22.33;;;14.53;;
13230;SDS011;6681;53.254;10.398;2023-10-19T06:13:25;23.70;;;15.00;;
13230;SDS011;6681;53.254;10.398;2023-10-19T06:15:51;18.77;;;13.33;;
13230;SDS011;6681;53.254;10.398;2023-10-19T06:18:17;19.03;;;14.17;;
13230;SDS011;6681;53.254;10.398;2023-10-19T06:20:43;20.30;;;13.77;;
13230;SDS011;6681;53.254;10.398;2023-10-19T06:23:09;22.07;;;14.63;;
13230;SDS011;6681;53.254;10.398;2023-10-19T06:25:36;20.40;;;14.77;;
13230;SDS011;6681;53.254;10.398;2023-10-19T06:28:04;21.97;;;14.13;;
13230;SDS011;6681;53.254;10.398;2023-10-19T06:30:30;20.20;;;13.43;;
13230;SDS011;6681;53.254;10.398;2023-10-19T06:32:57;20.37;;;13.33;;
13230;SDS011;6681;53.254;10.398;2023-10-19T06:35:25;23.10;;;14.53;;
13230;SDS011;6681;53.254;10.398;2023-10-19T06:37:52;24.80;;;15.90;;
13230;SDS011;6681;53.254;10.398;2023-10-19T06:40:20;24.80;;;15.50;;
13230;SDS011;6681;53.254;10.398;2023-10-19T06:42:47;18.13;;;15.00;;
13230;SDS011;6681;53.254;10.398;2023-10-19T06:45:14;20.40;;;16.60;;
13230;SDS011;6681;53.254;10.398;2023-10-19T06:47:44;19.80;;;14.93;;
13230;SDS011;6681;53.254;10.398;2023-10-19T06:50:12;22.03;;;15.57;;
13230;SDS011;6681;53.254;10.398;2023-10-19T06:52:40;22.87;;;15.67;;
13230;SDS011;6681;53.254;10.398;2023-10-19T06:55:07;22.43;;;15.33;;
13230;SDS011;6681;53.254;10.398;2023-10-19T06:57:54;22.70;;;14.97;;
13230;SDS011;6681;53.254;10.398;2023-10-19T07:00:21;24.23;;;14.60;;
13230;SDS011;6681;53.254;10.398;2023-10-19T07:02:52;23.10;;;14.50;;
13230;SDS011;6681;53.254;10.398;2023-10-19T07:05:20;24.87;;;14.33;;
13230;SDS011;6681;53.254;10.398;2023-10-19T07:07:47;21.03;;;14.30;;
13230;SDS011;6681;53.254;10.398;2023-10-19T07:10:15;22.50;;;15.17;;
13230;SDS011;6681;53.254;10.398;2023-10-19T07:12:43;21.20;;;16.03;;
13230;SDS011;6681;53.254;10.398;2023-10-19T07:15:11;30.23;;;15.47;;
13230;SDS011;6681;53.254;10.398;2023-10-19T07:17:39;20.30;;;14.87;;
13230;SDS011;6681;53.254;10.398;2023-10-19T07:20:09;22.23;;;15.80;;
13230;SDS011;6681;53.254;10.398;2023-10-19T07:22:50;19.50;;;15.00;;
13230;SDS011;6681;53.254;10.398;2023-10-19T07:25:19;20.73;;;16.17;;
13230;SDS011;6681;53.254;10.398;2023-10-19T07:27:47;22.13;;;15.03;;
13230;SDS011;6681;53.254;10.398;2023-10-19T07:30:19;22.43;;;15.37;;
13230;SDS011;6681;53.254;10.398;2023-10-19T07:32:49;25.37;;;16.23;;
13230;SDS011;6681;53.254;10.398;2023-10-19T07:35:20;24.03;;;16.27;;
13230;SDS011;6681;53.254;10.398;2023-10-19T07:37:47;20.23;;;15.17;;
13230;SDS011;6681;53.254;10.398;2023-10-19T07:40:14;24.40;;;16.03;;
13230;SDS011;6681;53.254;10.398;2023-10-19T07:42:40;20.97;;;14.63;;
13230;SDS011;6681;53.254;10.398;2023-10-19T07:45:07;25.13;;;15.67;;
13230;SDS011;6681;53.254;10.398;2023-10-19T07:47:37;20.83;;;15.23;;
13230;SDS011;6681;53.254;10.398;2023-10-19T07:50:05;23.53;;;16.63;;
13230;SDS011;6681;53.254;10.398;2023-10-19T07:52:37;25.53;;;16.17;;
13230;SDS011;6681;53.254;10.398;2023-10-19T07:55:04;22.63;;;16.17;;
13230;SDS011;6681;53.254;10.398;2023-10-19T07:57:30;25.90;;;16.17;;
13230;SDS011;6681;53.254;10.398;2023-10-19T07:59:56;23.10;;;17.23;;
13230;SDS011;6681;53.254;10.398;2023-10-19T08:02:21;22.60;;;14.73;;
13230;SDS011;6681;53.254;10.398;2023-10-19T08:04:49;23.97;;;15.83;;
13230;SDS011;6681;53.254;10.398;2023-10-19T08:07:16;25.73;;;16.43;;
13230;SDS011;6681;53.254;10.398;2023-10-19T08:09:42;30.40;;;18.03;;
13230;SDS011;6681;53.254;10.398;2023-10-19T08:12:08;30.50;;;17.77;;
13230;SDS011;6681;53.254;10.398;2023-10-19T08:14:38;20.73;;;15.77;;
13230;SDS011;6681;53.254;10.398;2023-10-19T08:17:04;22.80;;;17.50;;
13230;SDS011;6681;53.254;10.398;2023-10-19T08:19:30;21.80;;;15.83;;
13230;SDS011;6681;53.254;10.398;2023-10-19T08:21:58;25.37;;;16.93;;
13230;SDS011;6681;53.254;10.398;2023-10-19T08:24:24;24.03;;;16.87;;
13230;SDS011;6681;53.254;10.398;2023-10-19T08:26:50;23.30;;;17.97;;
13230;SDS011;6681;53.254;10.398;2023-10-19T08:29:16;22.37;;;16.77;;
13230;SDS011;6681;53.254;10.398;2023-10-19T08:31:44;22.53;;;16.13;;
13230;SDS011;6681;53.254;10.398;2023-10-19T08:34:13;34.87;;;18.77;;
13230;SDS011;6681;53.254;10.398;2023-10-19T08:36:39;34.17;;;20.07;;
13230;SDS011;6681;53.254;10.398;2023-10-19T08:39:05;41.47;;;20.90;;
13230;SDS011;6681;53.254;10.398;2023-10-19T08:41:35;24.03;;;15.87;;
13230;SDS011;6681;53.254;10.398;2023-10-19T08:44:05;22.10;;;16.13;;
13230;SDS011;6681;53.254;10.398;2023-10-19T08:46:36;25.57;;;17.60;;
13230;SDS011;6681;53.254;10.398;2023-10-19T08:49:09;29.77;;;19.50;;
13230;SDS011;6681;53.254;10.398;2023-10-19T08:51:37;26.67;;;18.07;;
13230;SDS011;6681;53.254;10.398;2023-10-19T08:54:04;26.20;;;19.00;;
13230;SDS011;6681;53.254;10.398;2023-10-19T08:56:36;36.30;;;20.20;;
13230;SDS011;6681;53.254;10.398;2023-10-19T08:59:02;30.13;;;17.93;;
13230;SDS011;6681;53.254;10.398;2023-10-19T09:01:28;26.53;;;19.13;;
13230;SDS011;6681;53.254;10.398;2023-10-19T09:03:57;27.50;;;18.47;;
13230;SDS011;6681;53.254;10.398;2023-10-19T09:06:24;24.57;;;18.50;;
13230;SDS011;6681;53.254;10.398;2023-10-19T09:08:50;26.50;;;17.77;;
13230;SDS011;6681;53.254;10.398;2023-10-19T09:11:16;28.00;;;18.37;;
13230;SDS011;6681;53.254;10.398;2023-10-19T09:13:45;22.50;;;17.03;;
13230;SDS011;6681;53.254;10.398;2023-10-19T09:16:16;27.70;;;18.13;;
13230;SDS011;6681;53.254;10.398;2023-10-19T09:18:42;27.43;;;19.30;;
13230;SDS011;6681;53.254;10.398;2023-10-19T09:21:10;26.50;;;18.27;;
13230;SDS011;6681;53.254;10.398;2023-10-19T09:23:49;27.10;;;17.23;;
13230;SDS011;6681;53.254;10.398;2023-10-19T09:26:19;30.73;;;20.07;;
13230;SDS011;6681;53.254;10.398;2023-10-19T09:28:47;27.80;;;18.30;;
13230;SDS011;6681;53.254;10.398;2023-10-19T09:31:13;37.53;;;21.27;;
13230;SDS011;6681;53.254;10.398;2023-10-19T09:33:41;26.00;;;19.47;;
13230;SDS011;6681;53.254;10.398;2023-10-19T09:36:09;30.90;;;20.50;;
13230;SDS011;6681;53.254;10.398;2023-10-19T09:41:13;27.10;;;19.73;;
13230;SDS011;6681;53.254;10.398;2023-10-19T09:43:45;26.10;;;19.67;;
13230;SDS011;6681;53.254;10.398;2023-10-19T09:46:17;31.33;;;21.80;;
13230;SDS011;6681;53.254;10.398;2023-10-19T09:48:47;28.40;;;20.33;;
13230;SDS011;6681;53.254;10.398;2023-10-19T09:51:14;33.13;;;19.80;;
13230;SDS011;6681;53.254;10.398;2023-10-19T09:53:41;29.20;;;20.80;;
13230;SDS011;6681;53.254;10.398;2023-10-19T09:56:20;29.97;;;20.20;;
13230;SDS011;6681;53.254;10.398;2023-10-19T09:58:53;27.20;;;20.67;;
13230;SDS011;6681;53.254;10.398;2023-10-19T10:01:23;29.03;;;20.83;;
13230;SDS011;6681;53.254;10.398;2023-10-19T10:03:51;29.50;;;20.77;;
13230;SDS011;6681;53.254;10.398;2023-10-19T10:06:56;25.37;;;20.23;;
13230;SDS011;6681;53.254;10.398;2023-10-19T10:09:19;28.30;;;20.50;;
13230;SDS011;6681;53.254;10.398;2023-10-19T10:11:48;29.03;;;20.80;;
13230;SDS011;6681;53.254;10.398;2023-10-19T10:14:19;27.00;;;20.63;;
13230;SDS011;6681;53.254;10.398;2023-10-19T10:17:04;34.77;;;22.40;;
13230;SDS011;6681;53.254;10.398;2023-10-19T10:19:30;29.23;;;20.70;;
13230;SDS011;6681;53.254;10.398;2023-10-19T10:22:09;32.33;;;22.37;;
13230;SDS011;6681;53.254;10.398;2023-10-19T10:24:46;34.10;;;23.30;;
13230;SDS011;6681;53.254;10.398;2023-10-19T10:27:11;29.90;;;21.17;;
13230;SDS011;6681;53.254;10.398;2023-10-19T10:29:57;30.33;;;20.73;;
13230;SDS011;6681;53.254;10.398;2023-10-19T10:38:06;27.20;;;20.10;;
13230;SDS011;6681;53.254;10.398;2023-10-19T10:43:15;29.73;;;22.67;;
13230;SDS011;6681;53.254;10.398;2023-10-19T10:45:42;33.53;;;22.13;;
13230;SDS011;6681;53.254;10.398;2023-10-19T10:48:12;29.37;;;22.83;;
13230;SDS011;6681;53.254;10.398;2023-10-19T10:50:38;32.10;;;23.53;;
13230;SDS011;6681;53.254;10.398;2023-10-19T10:53:06;32.33;;;22.47;;
13230;SDS011;6681;53.254;10.398;2023-10-19T10:55:32;28.47;;;22.00;;
13230;SDS011;6681;53.254;10.398;2023-10-19T10:57:58;26.20;;;21.27;;
13230;SDS011;6681;53.254;10.398;2023-10-19T11:00:24;30.03;;;22.20;;
13230;SDS011;6681;53.254;10.398;2023-10-19T11:03:03;31.50;;;21.67;;
13230;SDS011;6681;53.254;10.398;2023-10-19T11:05:33;34.57;;;21.70;;
13230;SDS011;6681;53.254;10.398;2023-10-19T11:10:39;30.93;;;23.37;;
13230;SDS011;6681;53.254;10.398;2023-10-19T11:13:11;30.90;;;22.43;;
13230;SDS011;6681;53.254;10.398;2023-10-19T11:15:38;27.53;;;22.10;;
13230;SDS011;6681;53.254;10.398;2023-10-19T11:18:31;28.73;;;23.23;;
13230;SDS011;6681;53.254;10.398;2023-10-19T11:21:06;41.00;;;24.50;;
13230;SDS011;6681;53.254;10.398;2023-10-19T11:23:35;34.60;;;25.80;;
13230;SDS011;6681;53.254;10.398;2023-10-19T11:26:08;34.33;;;23.10;;
13230;SDS011;6681;53.254;10.398;2023-10-19T11:28:35;36.20;;;23.33;;
13230;SDS011;6681;53.254;10.398;2023-10-19T11:31:11;32.23;;;24.80;;
13230;SDS011;6681;53.254;10.398;2023-10-19T11:33:42;33.57;;;23.67;;
13230;SDS011;6681;53.254;10.398;2023-10-19T11:36:09;31.33;;;23.37;;
13230;SDS011;6681;53.254;10.398;2023-10-19T11:38:37;37.87;;;25.27;;
13230;SDS011;6681;53.254;10.398;2023-10-19T11:41:04;33.57;;;25.83;;
13230;SDS011;6681;53.254;10.398;2023-10-19T11:43:30;29.63;;;23.17;;
13230;SDS011;6681;53.254;10.398;2023-10-19T11:45:56;29.30;;;23.57;;
13230;SDS011;6681;53.254;10.398;2023-10-19T11:48:22;32.47;;;24.30;;
13230;SDS011;6681;53.254;10.398;2023-10-19T11:50:47;31.53;;;23.80;;
13230;SDS011;6681;53.254;10.398;2023-10-19T11:53:13;27.50;;;22.43;;
13230;SDS011;6681;53.254;10.398;2023-10-19T11:55:38;29.40;;;22.97;;
13230;SDS011;6681;53.254;10.398;2023-10-19T11:58:07;31.17;;;23.77;;
13230;SDS011;6681;53.254;10.398;2023-10-19T12:00:36;32.33;;;25.10;;
13230;SDS011;6681;53.254;10.398;2023-10-19T12:03:03;30.27;;;21.37;;
13230;SDS011;6681;53.254;10.398;2023-10-19T12:05:29;29.90;;;23.47;;
13230;SDS011;6681;53.254;10.398;2023-10-19T12:07:55;32.63;;;22.80;;
13230;SDS011;6681;53.254;10.398;2023-10-19T12:10:21;31.17;;;23.83;;
13230;SDS011;6681;53.254;10.398;2023-10-19T12:12:54;30.47;;;22.53;;
13230;SDS011;6681;53.254;10.398;2023-10-19T12:15:21;29.70;;;22.30;;
13230;SDS011;6681;53.254;10.398;2023-10-19T12:17:47;30.23;;;24.47;;
13230;SDS011;6681;53.254;10.398;2023-10-19T12:20:15;28.60;;;23.13;;
13230;SDS011;6681;53.254;10.398;2023-10-19T12:22:41;28.20;;;21.50;;
13230;SDS011;6681;53.254;10.398;2023-10-19T12:25:07;28.77;;;22.50;;
13230;SDS011;6681;53.254;10.398;2023-10-19T12:27:33;29.10;;;21.73;;
13230;SDS011;6681;53.254;10.398;2023-10-19T12:29:59;31.93;;;21.50;;
13230;SDS011;6681;53.254;10.398;2023-10-19T12:32:24;27.37;;;21.07;;
13230;SDS011;6681;53.254;10.398;2023-10-19T12:34:51;30.77;;;20.70;;
13230;SDS011;6681;53.254;10.398;2023-10-19T12:37:22;28.27;;;21.03;;
13230;SDS011;6681;53.254;10.398;2023-10-19T12:39:49;26.87;;;20.33;;
13230;SDS011;6681;53.254;10.398;2023-10-19T12:42:16;27.13;;;21.30;;
13230;SDS011;6681;53.254;10.398;2023-10-19T12:44:42;27.00;;;20.37;;
13230;SDS011;6681;53.254;10.398;2023-10-19T12:47:08;26.83;;;19.20;;
13230;SDS011;6681;53.254;10.398;2023-10-19T12:49:39;23.43;;;19.00;;
13230;SDS011;6681;53.254;10.398;2023-10-19T12:52:05;28.27;;;20.77;;
13230;SDS011;6681;53.254;10.398;2023-10-19T12:54:35;22.73;;;19.07;;
13230;SDS011;6681;53.254;10.398;2023-10-19T12:57:01;29.40;;;22.10;;
13230;SDS011;6681;53.254;10.398;2023-10-19T12:59:29;29.67;;;21.83;;
13230;SDS011;6681;53.254;10.398;2023-10-19T13:01:55;28.27;;;21.43;;
13230;SDS011;6681;53.254;10.398;2023-10-19T13:04:23;27.63;;;21.80;;
13230;SDS011;6681;53.254;10.398;2023-10-19T13:06:50;28.07;;;20.97;;
13230;SDS011;6681;53.254;10.398;2023-10-19T13:09:17;28.03;;;21.43;;
13230;SDS011;6681;53.254;10.398;2023-10-19T13:11:47;24.20;;;20.87;;
13230;SDS011;6681;53.254;10.398;2023-10-19T13:14:16;30.10;;;22.80;;
13230;SDS011;6681;53.254;10.398;2023-10-19T13:16:42;30.30;;;22.07;;
13230;SDS011;6681;53.254;10.398;2023-10-19T13:19:08;37.97;;;23.90;;
13230;SDS011;6681;53.254;10.398;2023-10-19T13:21:38;31.23;;;23.90;;
13230;SDS011;6681;53.254;10.398;2023-10-19T13:24:07;32.80;;;23.33;;
13230;SDS011;6681;53.254;10.398;2023-10-19T13:26:34;31.90;;;23.43;;
13230;SDS011;6681;53.254;10.398;2023-10-19T13:29:00;30.30;;;24.07;;
13230;SDS011;6681;53.254;10.398;2023-10-19T13:31:27;31.43;;;25.87;;
13230;SDS011;6681;53.254;10.398;2023-10-19T13:33:52;39.83;;;23.67;;
13230;SDS011;6681;53.254;10.398;2023-10-19T13:36:19;32.67;;;24.07;;
13230;SDS011;6681;53.254;10.398;2023-10-19T13:38:45;32.87;;;24.10;;
13230;SDS011;6681;53.254;10.398;2023-10-19T13:41:11;34.07;;;25.03;;
13230;SDS011;6681;53.254;10.398;2023-10-19T13:43:39;36.17;;;25.93;;
13230;SDS011;6681;53.254;10.398;2023-10-19T13:46:05;33.50;;;24.43;;
13230;SDS011;6681;53.254;10.398;2023-10-19T13:48:31;31.33;;;23.90;;
13230;SDS011;6681;53.254;10.398;2023-10-19T13:50:59;31.47;;;23.33;;
13230;SDS011;6681;53.254;10.398;2023-10-19T13:53:25;34.23;;;23.20;;
13230;SDS011;6681;53.254;10.398;2023-10-19T13:55:51;33.37;;;23.27;;
13230;SDS011;6681;53.254;10.398;2023-10-19T13:58:17;32.63;;;24.47;;
13230;SDS011;6681;53.254;10.398;2023-10-19T14:00:43;30.33;;;23.57;;
13230;SDS011;6681;53.254;10.398;2023-10-19T14:03:10;27.60;;;21.57;;
13230;SDS011;6681;53.254;10.398;2023-10-19T14:05:39;29.03;;;22.10;;
13230;SDS011;6681;53.254;10.398;2023-10-19T14:08:08;27.07;;;20.53;;
13230;SDS011;6681;53.254;10.398;2023-10-19T14:10:34;26.90;;;21.47;;
13230;SDS011;6681;53.254;10.398;2023-10-19T14:13:00;24.67;;;19.30;;
13230;SDS011;6681;53.254;10.398;2023-10-19T14:15:27;28.43;;;19.37;;
13230;SDS011;6681;53.254;10.398;2023-10-19T14:17:58;29.10;;;21.70;;
13230;SDS011;6681;53.254;10.398;2023-10-19T14:20:24;29.70;;;21.20;;
13230;SDS011;6681;53.254;10.398;2023-10-19T14:22:51;27.60;;;21.30;;
13230;SDS011;6681;53.254;10.398;2023-10-19T14:25:18;30.70;;;23.00;;
13230;SDS011;6681;53.254;10.398;2023-10-19T14:27:47;31.13;;;22.00;;
13230;SDS011;6681;53.254;10.398;2023-10-19T14:30:15;27.90;;;21.83;;
13230;SDS011;6681;53.254;10.398;2023-10-19T14:32:44;30.70;;;22.47;;
13230;SDS011;6681;53.254;10.398;2023-10-19T14:35:12;28.87;;;22.40;;
13230;SDS011;6681;53.254;10.398;2023-10-19T14:37:40;27.27;;;22.20;;
13230;SDS011;6681;53.254;10.398;2023-10-19T14:40:10;28.97;;;21.57;;
13230;SDS011;6681;53.254;10.398;2023-10-19T14:42:45;27.13;;;20.83;;
13230;SDS011;6681;53.254;10.398;2023-10-19T14:45:15;28.50;;;22.40;;